Time;durP1;ratioP1;P1;durP2;ratioP2;P2;SDS_P1;SDS_P2;PMS_P1;PMS_P2;Temp;Humidity;BMP_temperature;BMP_pressure;BME280_temperature;BME280_humidity;BME280_pressure;Samples;Min_cycle;Max_cycle;Signal;HPM_P1;HPM_P2
2022/09/21 00:01:04;;;;;;;6.83;4.50;;;;;;;7.35;100.00;100980.44;5002344;28;20339;-70
2022/09/21 00:03:30;;;;;;;5.93;4.17;;;;;;;7.32;100.00;100975.44;5016579;28;20186;-72
2022/09/21 00:06:05;;;;;;;6.53;4.43;;;;;;;7.30;100.00;100982.31;5012788;28;20185;-70
2022/09/21 00:08:30;;;;;;;5.63;4.20;;;;;;;7.27;100.00;100975.53;5013300;28;20203;-71
2022/09/21 00:10:55;;;;;;;5.70;4.20;;;;;;;7.23;100.00;100981.63;5009363;28;20276;-70
2022/09/21 00:13:20;;;;;;;9.83;4.67;;;;;;;7.24;100.00;100979.91;5015574;28;20198;-69
2022/09/21 00:15:49;;;;;;;7.27;4.17;;;;;;;7.23;100.00;100979.06;5012687;28;20234;-69
2022/09/21 00:18:14;;;;;;;6.37;4.77;;;;;;;7.21;100.00;100972.31;5013907;28;20186;-70
2022/09/21 00:20:44;;;;;;;7.37;5.00;;;;;;;7.20;100.00;100980.88;5002258;28;20231;-70
2022/09/21 00:23:11;;;;;;;6.27;4.37;;;;;;;7.25;100.00;100981.59;5023786;28;20193;-71
2022/09/21 00:25:37;;;;;;;7.80;4.50;;;;;;;7.32;100.00;100983.09;5013942;28;20210;-71
2022/09/21 00:28:02;;;;;;;5.53;4.40;;;;;;;7.36;100.00;100979.56;5013991;28;20251;-69
2022/09/21 00:30:27;;;;;;;7.70;5.03;;;;;;;7.35;100.00;100987.31;5004334;28;20318;-71
2022/09/21 00:32:53;;;;;;;5.53;4.27;;;;;;;7.39;100.00;100986.34;5011690;28;20185;-70
2022/09/21 00:35:18;;;;;;;5.40;4.90;;;;;;;7.46;100.00;100987.84;5012225;28;20595;-70
2022/09/21 00:37:43;;;;;;;6.47;5.00;;;;;;;7.47;100.00;100981.00;5013935;28;20186;-71
2022/09/21 00:40:09;;;;;;;10.10;5.50;;;;;;;7.48;100.00;100982.69;5008918;28;20366;-71
2022/09/21 00:42:34;;;;;;;6.30;4.90;;;;;;;7.42;100.00;100978.59;5027297;28;20286;-70
2022/09/21 00:45:00;;;;;;;8.83;5.00;;;;;;;7.39;100.00;100979.50;5019800;28;20689;-70
2022/09/21 00:47:32;;;;;;;6.10;4.83;;;;;;;7.42;100.00;100983.69;5020161;28;20616;-69
2022/09/21 00:50:00;;;;;;;7.93;5.17;;;;;;;7.45;100.00;100990.47;5019274;28;20189;-70
2022/09/21 00:52:31;;;;;;;9.03;5.30;;;;;;;7.44;100.00;100979.34;5027046;28;20242;-70
2022/09/21 00:55:02;;;;;;;7.47;5.13;;;;;;;7.42;100.00;100987.09;5010758;28;20193;-72
2022/09/21 00:57:30;;;;;;;5.40;4.50;;;;;;;7.32;100.00;100988.22;5022941;28;20192;-71
2022/09/21 01:00:01;;;;;;;6.43;4.47;;;;;;;7.38;100.00;100992.31;5031432;28;20227;-70
2022/09/21 01:02:27;;;;;;;5.97;4.23;;;;;;;7.46;100.00;100992.97;5023989;28;20232;-70
2022/09/21 01:04:56;;;;;;;5.03;4.63;;;;;;;7.50;100.00;100994.56;5013427;28;20482;-70
2022/09/21 01:07:25;;;;;;;6.30;4.53;;;;;;;7.45;100.00;100986.16;5014106;28;20280;-70
2022/09/21 01:09:53;;;;;;;7.33;4.60;;;;;;;7.44;100.00;100997.28;5021682;28;20189;-70
2022/09/21 01:12:48;;;;;;;6.10;4.30;;;;;;;7.30;100.00;100989.16;5017792;28;20231;-70
2022/09/21 01:15:25;;;;;;;5.50;4.13;;;;;;;7.25;100.00;100989.25;5012333;28;20187;-71
2022/09/21 01:18:21;;;;;;;5.70;4.50;;;;;;;7.19;100.00;100994.53;5016115;28;20202;-70
2022/09/21 01:21:23;;;;;;;4.53;4.03;;;;;;;7.12;100.00;100993.88;5005994;28;20248;-71
2022/09/21 01:24:04;;;;;;;4.60;4.20;;;;;;;7.16;100.00;100995.47;5010249;28;20176;-70
2022/09/21 01:26:44;;;;;;;4.97;4.43;;;;;;;7.03;100.00;100991.53;5015647;28;20183;-69
2022/09/21 01:29:25;;;;;;;6.03;4.70;;;;;;;7.02;100.00;100994.97;5012530;28;20216;-70
2022/09/21 01:31:59;;;;;;;4.50;4.10;;;;;;;6.81;100.00;100999.75;5011805;28;20238;-69
2022/09/21 01:34:32;;;;;;;7.30;4.70;;;;;;;6.96;100.00;101001.09;5014961;28;20181;-71
2022/09/21 01:37:04;;;;;;;8.27;5.30;;;;;;;6.98;100.00;101007.00;5029125;28;20713;-70
2022/09/21 01:39:36;;;;;;;7.63;5.03;;;;;;;6.93;100.00;101008.84;5018504;28;20192;-69
2022/09/21 01:42:05;;;;;;;6.97;5.00;;;;;;;6.83;100.00;101007.38;5009349;28;20591;-70
2022/09/21 01:44:34;;;;;;;8.97;5.63;;;;;;;6.79;100.00;101009.19;5026870;28;20895;-70
2022/09/21 01:47:02;;;;;;;5.50;5.00;;;;;;;6.78;100.00;101004.94;5023027;28;20554;-69
2022/09/21 01:49:37;;;;;;;11.00;5.57;;;;;;;6.74;100.00;101001.59;5018196;28;20196;-69
2022/09/21 01:52:16;;;;;;;9.27;5.40;;;;;;;6.65;100.00;101006.09;5016849;28;20254;-69
2022/09/21 01:54:53;;;;;;;7.80;5.40;;;;;;;6.72;100.00;101005.94;5024204;28;20237;-69
2022/09/21 01:57:39;;;;;;;6.83;5.70;;;;;;;6.63;100.00;101001.84;5023591;28;20199;-71
2022/09/21 02:00:08;;;;;;;8.33;5.73;;;;;;;6.65;100.00;100990.75;5015890;28;20202;-70
2022/09/21 02:02:42;;;;;;;8.67;5.63;;;;;;;6.52;100.00;100995.34;5040970;28;20199;-70
2022/09/21 02:05:10;;;;;;;7.57;5.43;;;;;;;6.53;100.00;100997.03;4998609;28;20185;-70
2022/09/21 02:07:37;;;;;;;8.23;5.60;;;;;;;6.51;100.00;100997.06;5012256;28;20188;-70
2022/09/21 02:10:06;;;;;;;7.67;5.50;;;;;;;6.48;100.00;100997.13;5020950;28;20185;-71
2022/09/21 02:12:33;;;;;;;10.37;5.30;;;;;;;6.46;100.00;101004.81;5022839;28;20689;-70
2022/09/21 02:15:00;;;;;;;8.57;5.77;;;;;;;6.41;100.00;100998.13;5012233;28;20194;-70
2022/09/21 02:18:13;;;;;;;11.53;5.43;;;;;;;6.28;100.00;100995.03;5011300;28;20266;-70
2022/09/21 02:20:48;;;;;;;6.33;5.37;;;;;;;6.31;100.00;101010.28;4994447;28;20252;-71
2022/09/21 02:23:23;;;;;;;8.47;5.90;;;;;;;6.26;100.00;101000.16;5028147;28;20232;-70
2022/09/21 02:25:58;;;;;;;7.73;6.93;;;;;;;6.05;100.00;101003.19;5024755;28;20177;-71
2022/09/21 02:28:50;;;;;;;6.87;6.27;;;;;;;5.97;100.00;101000.75;5014233;28;20216;-72
2022/09/21 02:31:27;;;;;;;9.70;6.40;;;;;;;6.03;100.00;100997.25;5013087;28;20237;-70
2022/09/21 02:34:03;;;;;;;8.83;6.00;;;;;;;5.97;100.00;100996.47;5031340;28;20542;-70
2022/09/21 02:36:42;;;;;;;12.03;6.63;;;;;;;5.92;100.00;101000.84;5023300;28;20187;-70
2022/09/21 02:39:23;;;;;;;10.57;6.53;;;;;;;5.77;100.00;101001.19;5011174;28;20209;-70
2022/09/21 02:42:00;;;;;;;10.40;6.60;;;;;;;6.00;100.00;101005.81;5001503;28;20231;-70
2022/09/21 02:44:34;;;;;;;9.10;6.50;;;;;;;6.02;100.00;101008.38;5019188;28;20219;-69
2022/09/21 02:47:07;;;;;;;9.77;6.90;;;;;;;6.06;100.00;100998.03;5021131;28;20207;-69
2022/09/21 02:49:38;;;;;;;8.30;6.53;;;;;;;6.08;100.00;101000.56;5019755;28;20191;-70
2022/09/21 02:52:09;;;;;;;9.60;6.47;;;;;;;6.03;100.00;101005.78;5001748;28;20239;-70
2022/09/21 02:54:37;;;;;;;10.87;5.70;;;;;;;5.96;100.00;101011.84;5024543;28;20186;-71
2022/09/21 02:57:06;;;;;;;8.17;6.47;;;;;;;5.93;100.00;101007.63;5027900;28;20224;-71
2022/09/21 02:59:34;;;;;;;7.97;6.13;;;;;;;6.02;100.00;101003.25;5015164;28;20190;-71
2022/09/21 03:02:05;;;;;;;7.27;6.50;;;;;;;5.93;100.00;101007.63;4989093;28;20238;-72
2022/09/21 03:04:35;;;;;;;7.73;6.00;;;;;;;5.93;100.00;100999.16;5022337;28;20174;-71
2022/09/21 03:07:01;;;;;;;6.10;5.57;;;;;;;5.88;100.00;101004.34;5020829;28;20229;-70
2022/09/21 03:09:28;;;;;;;7.63;6.07;;;;;;;5.89;100.00;101008.59;5021236;28;20512;-71
2022/09/21 03:11:58;;;;;;;10.67;6.60;;;;;;;5.80;100.00;101001.09;5009948;28;20259;-70
2022/09/21 03:14:23;;;;;;;7.57;6.50;;;;;;;5.84;100.00;101010.38;5015904;28;20228;-70
2022/09/21 03:16:49;;;;;;;7.27;6.37;;;;;;;5.82;100.00;101012.13;5016288;28;20222;-71
2022/09/21 03:19:14;;;;;;;9.97;6.60;;;;;;;5.77;100.00;101012.22;5010453;28;20185;-72
2022/09/21 03:21:43;;;;;;;8.83;6.13;;;;;;;5.79;100.00;101009.63;5018752;28;20658;-69
2022/09/21 03:24:08;;;;;;;10.77;6.90;;;;;;;5.85;100.00;101013.78;5009999;28;20179;-71
2022/09/21 03:26:38;;;;;;;11.30;6.87;;;;;;;5.81;100.00;101018.94;5010945;28;20581;-70
2022/09/21 03:29:04;;;;;;;11.10;7.07;;;;;;;5.77;100.00;101017.31;5016454;28;20189;-70
2022/09/21 03:31:30;;;;;;;8.07;7.27;;;;;;;5.72;100.00;101023.38;4985693;28;20565;-69
2022/09/21 03:33:56;;;;;;;8.13;7.13;;;;;;;5.74;100.00;101019.09;5001660;28;20174;-73
2022/09/21 03:36:21;;;;;;;10.47;6.83;;;;;;;5.74;100.00;101021.66;5024018;28;20210;-71
2022/09/21 03:38:46;;;;;;;11.33;6.83;;;;;;;5.60;100.00;101024.47;5016589;28;20186;-70
2022/09/21 03:41:14;;;;;;;8.50;7.50;;;;;;;5.74;100.00;101031.84;5016777;28;20240;-71
2022/09/21 03:43:39;;;;;;;7.30;6.43;;;;;;;5.64;100.00;101028.63;5025746;28;20324;-72
2022/09/21 03:46:05;;;;;;;8.80;7.00;;;;;;;5.73;100.00;101025.91;5034414;28;20258;-72
2022/09/21 03:48:31;;;;;;;10.43;6.90;;;;;;;5.68;100.00;101039.63;5027349;28;20183;-70
2022/09/21 03:51:02;;;;;;;11.57;6.83;;;;;;;5.65;100.00;101028.59;5024045;28;20221;-71
2022/09/21 03:53:30;;;;;;;7.07;6.33;;;;;;;5.58;100.00;101024.50;5027760;28;20190;-71
2022/09/21 03:55:56;;;;;;;7.97;6.20;;;;;;;5.52;100.00;101028.88;5018331;28;20551;-71
2022/09/21 03:58:21;;;;;;;13.50;6.93;;;;;;;5.53;100.00;101026.28;5016875;28;20674;-71
2022/09/21 04:00:49;;;;;;;8.43;6.60;;;;;;;5.48;100.00;101026.38;5013906;28;20226;-70
2022/09/21 04:03:14;;;;;;;7.43;6.40;;;;;;;5.46;100.00;101027.28;5018287;28;20265;-71
2022/09/21 04:05:42;;;;;;;12.50;6.77;;;;;;;5.49;100.00;101029.75;5020458;28;20606;-72
2022/09/21 04:08:08;;;;;;;7.53;6.63;;;;;;;5.51;100.00;101028.03;5016959;28;20182;-70
2022/09/21 04:10:33;;;;;;;8.40;6.87;;;;;;;5.56;100.00;101031.34;5016811;28;20296;-70
2022/09/21 04:13:10;;;;;;;15.50;6.97;;;;;;;5.50;100.00;101027.19;5036040;28;20255;-70
2022/09/21 04:15:35;;;;;;;8.07;6.90;;;;;;;5.49;100.00;101032.31;5020587;28;20214;-69
2022/09/21 04:18:04;;;;;;;11.00;6.70;;;;;;;5.41;100.00;101039.25;5016718;28;20217;-70
2022/09/21 04:20:32;;;;;;;7.97;6.73;;;;;;;5.29;100.00;101040.34;5007113;28;20236;-69
2022/09/21 04:22:58;;;;;;;7.80;7.07;;;;;;;5.39;100.00;101041.84;5003983;28;20282;-69
2022/09/21 04:25:23;;;;;;;7.00;6.30;;;;;;;5.36;100.00;101041.91;5007782;28;20651;-70
2022/09/21 04:27:51;;;;;;;7.07;6.10;;;;;;;5.41;100.00;101034.16;5015965;28;20179;-70
2022/09/21 04:30:17;;;;;;;10.00;7.00;;;;;;;5.35;100.00;101047.88;5017832;28;20627;-70
2022/09/21 04:32:43;;;;;;;9.10;6.93;;;;;;;5.28;100.00;101038.66;5040587;28;20190;-70
2022/09/21 04:35:08;;;;;;;7.07;6.23;;;;;;;5.25;100.00;101033.63;5023453;28;20688;-71
2022/09/21 04:37:34;;;;;;;10.90;6.40;;;;;;;5.26;100.00;101042.94;5029689;28;20660;-71
2022/09/21 04:39:59;;;;;;;9.73;6.80;;;;;;;5.18;100.00;101035.41;5020878;28;20194;-70
2022/09/21 04:42:26;;;;;;;7.80;5.90;;;;;;;5.21;100.00;101045.56;5035127;28;20234;-71
2022/09/21 04:44:54;;;;;;;7.20;6.07;;;;;;;5.21;100.00;101044.72;5021622;28;20193;-71
2022/09/21 04:47:22;;;;;;;11.47;9.40;;;;;;;5.20;100.00;101050.69;5025420;28;20661;-74
2022/09/21 04:49:47;;;;;;;24.23;22.30;;;;;;;5.15;100.00;101053.34;5004076;28;20182;-72
2022/09/21 04:52:15;;;;;;;17.90;16.10;;;;;;;5.07;100.00;101053.44;5017479;28;20291;-70
2022/09/21 04:54:41;;;;;;;12.33;10.43;;;;;;;5.10;100.00;101052.56;5028442;28;20186;-70
2022/09/21 04:57:06;;;;;;;11.17;10.03;;;;;;;5.15;100.00;101055.88;5023391;28;20185;-70
2022/09/21 04:59:31;;;;;;;11.70;9.07;;;;;;;5.11;100.00;101055.09;5028717;28;20189;-70
2022/09/21 05:01:59;;;;;;;9.60;7.77;;;;;;;5.05;100.00;101054.34;5028273;28;20229;-74
2022/09/21 05:04:24;;;;;;;8.80;7.77;;;;;;;5.08;100.00;101056.84;5018097;28;20182;-69
2022/09/21 05:06:56;;;;;;;10.70;7.80;;;;;;;5.03;100.00;101056.91;5017204;28;20681;-70
2022/09/21 05:12:05;;;;;;;8.27;7.47;;;;;;;5.07;100.00;101071.28;5021483;28;20332;-70
2022/09/21 05:14:31;;;;;;;8.87;8.00;;;;;;;5.18;100.00;101066.03;5025390;28;20197;-70
2022/09/21 05:16:58;;;;;;;8.40;7.50;;;;;;;5.21;100.00;101063.44;5018466;28;20182;-70
2022/09/21 05:19:23;;;;;;;13.63;8.00;;;;;;;5.19;100.00;101066.88;5029251;28;20220;-69
2022/09/21 05:21:49;;;;;;;8.80;7.93;;;;;;;5.20;100.00;101071.09;5014959;28;20257;-72
2022/09/21 05:24:14;;;;;;;8.27;7.20;;;;;;;5.24;100.00;101072.75;5015187;28;20555;-70
2022/09/21 05:26:39;;;;;;;12.00;7.37;;;;;;;5.21;100.00;101077.88;5012228;28;20218;-70
2022/09/21 05:29:05;;;;;;;11.70;7.50;;;;;;;5.21;100.00;101078.75;5018340;28;20177;-70
2022/09/21 05:31:45;;;;;;;14.80;8.23;;;;;;;5.20;100.00;101084.69;5031135;28;20350;-71
2022/09/21 05:34:41;;;;;;;10.37;7.87;;;;;;;5.17;100.00;101083.03;5023925;28;20381;-69
2022/09/21 05:37:16;;;;;;;13.10;8.40;;;;;;;5.40;100.00;101088.63;5015634;28;21779;-69
2022/09/21 05:39:42;;;;;;;11.87;7.80;;;;;;;5.42;100.00;101089.44;5018607;28;20178;-69
2022/09/21 05:42:09;;;;;;;11.47;8.73;;;;;;;5.41;100.00;101088.59;5034869;28;20279;-70
2022/09/21 05:44:35;;;;;;;8.70;7.77;;;;;;;5.52;100.00;101090.97;5024873;28;20682;-71
2022/09/21 05:47:24;;;;;;;17.70;7.30;;;;;;;5.30;100.00;101087.94;5010796;28;20206;-71
2022/09/21 05:50:04;;;;;;;10.70;8.00;;;;;;;5.41;100.00;101097.94;5006820;28;20596;-71
2022/09/21 05:52:32;;;;;;;15.50;7.73;;;;;;;5.59;100.00;101097.63;5001195;28;20217;-70
2022/09/21 05:55:24;;;;;;;13.40;7.90;;;;;;;5.64;100.00;101097.56;5018452;28;20194;-70
2022/09/21 05:58:00;;;;;;;10.93;8.00;;;;;;;5.74;100.00;101095.69;5009628;28;20182;-70
2022/09/21 06:00:31;;;;;;;11.90;8.23;;;;;;;5.89;100.00;101100.50;5000091;28;20237;-69
2022/09/21 06:03:16;;;;;;;9.67;8.23;;;;;;;5.98;100.00;101102.91;5014097;28;20207;-69
2022/09/21 06:05:42;;;;;;;14.40;12.03;;;;;;;6.13;100.00;101100.94;5012467;28;20194;-69
2022/09/21 06:08:08;;;;;;;33.47;26.27;;;;;;;6.21;100.00;101104.16;5010658;28;20193;-71
2022/09/21 06:10:34;;;;;;;14.33;10.53;;;;;;;6.29;100.00;101106.59;5001545;28;20243;-70
2022/09/21 06:13:00;;;;;;;10.03;8.33;;;;;;;6.37;100.00;101104.69;5019422;28;20257;-70
2022/09/21 06:15:25;;;;;;;10.40;9.10;;;;;;;6.44;100.00;101100.31;5013357;28;20329;-71
2022/09/21 06:17:50;;;;;;;14.07;9.17;;;;;;;6.46;100.00;101099.41;5022815;28;20244;-69
2022/09/21 06:20:16;;;;;;;10.47;8.93;;;;;;;6.47;100.00;101102.78;5002607;28;20210;-70
2022/09/21 06:22:44;;;;;;;9.07;7.63;;;;;;;6.74;100.00;101103.91;5006395;28;20195;-69
2022/09/21 06:25:10;;;;;;;11.43;8.70;;;;;;;7.14;100.00;101103.84;5025619;28;20196;-70
2022/09/21 06:27:35;;;;;;;12.57;9.63;;;;;;;7.65;100.00;101110.25;5025080;28;20183;-70
2022/09/21 06:30:00;;;;;;;10.60;9.23;;;;;;;8.15;100.00;101117.44;5027811;28;20767;-70
2022/09/21 06:32:26;;;;;;;15.97;10.27;;;;;;;8.98;100.00;101106.47;5023623;28;20233;-70
2022/09/21 06:34:51;;;;;;;9.53;8.27;;;;;;;9.68;100.00;101099.88;5007588;28;20209;-70
2022/09/21 06:37:16;;;;;;;8.90;7.50;;;;;;;10.88;100.00;101093.75;5024758;28;20587;-70
2022/09/21 06:39:41;;;;;;;10.43;6.27;;;;;;;11.34;100.00;101088.47;5019409;28;20217;-71
2022/09/21 06:42:09;;;;;;;7.97;7.17;;;;;;;12.11;100.00;101091.16;5013231;28;20256;-71
2022/09/21 06:44:34;;;;;;;7.07;6.13;;;;;;;12.54;100.00;101095.25;5024887;28;20286;-72
2022/09/21 06:47:00;;;;;;;5.90;5.37;;;;;;;13.82;97.61;101086.41;5013040;28;20178;-72
2022/09/21 06:49:27;;;;;;;7.97;4.67;;;;;;;14.81;88.38;101093.19;5031946;28;20581;-72
2022/09/21 06:51:53;;;;;;;7.93;4.43;;;;;;;16.67;83.24;101101.09;5030295;28;21013;-72
2022/09/21 06:54:19;;;;;;;6.43;4.50;;;;;;;17.62;64.64;101094.91;5015795;28;20214;-72
2022/09/21 06:56:44;;;;;;;7.60;4.17;;;;;;;18.42;63.16;101094.56;5009565;28;20194;-72
2022/09/21 06:59:12;;;;;;;4.37;3.97;;;;;;;19.49;54.34;101097.97;5021547;28;20265;-72
2022/09/21 07:01:37;;;;;;;5.33;4.03;;;;;;;19.18;51.45;101109.91;5007608;28;20268;-72
2022/09/21 07:04:08;;;;;;;5.57;3.73;;;;;;;20.28;49.20;101106.72;5021787;28;20193;-72
2022/09/21 07:06:33;;;;;;;6.90;4.13;;;;;;;20.90;46.54;101110.47;5011544;28;20195;-72
2022/09/21 07:09:00;;;;;;;4.67;3.97;;;;;;;21.12;46.28;101116.50;5019381;28;20193;-71
2022/09/21 07:11:26;;;;;;;6.17;3.77;;;;;;;21.71;43.94;101111.63;5008395;28;20286;-71
2022/09/21 07:13:51;;;;;;;5.87;4.27;;;;;;;21.98;42.63;101103.19;5015282;28;20540;-70
2022/09/21 07:16:18;;;;;;;4.53;3.90;;;;;;;22.77;40.87;101114.59;5010136;28;20232;-69
2022/09/21 07:18:43;;;;;;;4.90;3.80;;;;;;;22.46;41.04;101122.59;5014621;28;20609;-70
2022/09/21 07:21:10;;;;;;;7.10;3.97;;;;;;;20.40;44.93;101123.22;5022101;28;20319;-71
2022/09/21 07:23:38;;;;;;;6.63;3.80;;;;;;;20.54;45.04;101122.09;5038308;28;20563;-70
2022/09/21 07:26:16;;;;;;;8.80;3.80;;;;;;;20.87;45.80;101120.34;5021653;28;20210;-71
2022/09/21 07:28:45;;;;;;;5.23;3.80;;;;;;;21.73;42.99;101114.94;5015728;28;20189;-71
2022/09/21 07:31:13;;;;;;;4.83;3.73;;;;;;;22.30;39.91;101117.03;4979272;28;20690;-71
2022/09/21 07:33:42;;;;;;;5.73;3.40;;;;;;;21.94;40.65;101120.09;5021865;28;20513;-71
2022/09/21 07:36:09;;;;;;;6.30;3.83;;;;;;;22.98;39.97;101117.06;5018613;28;20232;-71
2022/09/21 07:38:38;;;;;;;7.35;4.05;;;;;;;20.56;43.36;101125.44;5013882;28;20194;-71
2022/09/21 07:41:05;;;;;;;6.60;3.90;;;;;;;21.89;41.91;101117.91;5019716;28;20249;-70
2022/09/21 07:43:30;;;;;;;5.18;3.78;;;;;;;22.64;40.53;101112.25;5024801;28;20218;-71
2022/09/21 07:45:56;;;;;;;7.68;3.65;;;;;;;21.38;42.16;101124.78;5022118;28;20194;-70
2022/09/21 07:48:21;;;;;;;9.33;4.10;;;;;;;20.80;43.59;101127.84;5025988;28;20595;-71
2022/09/21 07:50:48;;;;;;;6.80;3.37;;;;;;;20.12;44.86;101117.59;5022929;28;20240;-70
2022/09/21 07:53:15;;;;;;;5.60;3.80;;;;;;;21.35;43.86;101119.00;5010183;28;20923;-71
2022/09/21 07:55:40;;;;;;;5.85;3.83;;;;;;;23.27;38.83;101116.22;5008620;28;20630;-71
2022/09/21 08:00:50;;;;;;;11.02;4.57;;;;;;;22.21;39.26;101108.19;5006864;28;20228;-71
2022/09/21 08:03:15;;;;;;;6.65;3.83;;;;;;;21.58;41.60;101114.47;5010782;28;20187;-71
2022/09/21 08:05:41;;;;;;;7.45;4.47;;;;;;;20.90;42.11;101117.47;5006805;28;20657;-71
2022/09/21 08:08:07;;;;;;;7.90;4.40;;;;;;;20.03;46.11;101115.69;5009670;28;20178;-71
2022/09/21 08:10:32;;;;;;;6.57;4.50;;;;;;;18.77;50.68;101117.22;5004053;28;20284;-70
2022/09/21 08:13:00;;;;;;;6.83;4.73;;;;;;;18.10;54.84;101122.88;4997493;28;20184;-70
2022/09/21 08:15:26;;;;;;;7.13;4.70;;;;;;;17.31;58.54;101130.78;5001647;28;20183;-70
2022/09/21 08:17:52;;;;;;;8.13;5.00;;;;;;;16.84;61.92;101123.38;5007069;28;20623;-70
2022/09/21 08:20:20;;;;;;;8.13;4.40;;;;;;;16.41;65.25;101121.75;4998868;28;20623;-73
2022/09/21 08:22:46;;;;;;;7.30;4.90;;;;;;;15.98;67.64;101124.44;4996247;28;20179;-70
2022/09/21 08:25:11;;;;;;;5.37;4.47;;;;;;;15.23;71.21;101124.50;5007723;28;20233;-71
2022/09/21 08:27:41;;;;;;;7.43;4.57;;;;;;;16.09;70.30;101128.97;5011815;28;20186;-74
2022/09/21 08:30:07;;;;;;;10.80;5.43;;;;;;;15.11;75.41;101126.06;4995385;28;20399;-71
2022/09/21 08:32:32;;;;;;;12.90;6.17;;;;;;;14.23;82.38;101128.25;5020424;28;20215;-70
2022/09/21 08:34:58;;;;;;;9.30;6.07;;;;;;;14.07;85.64;101129.06;5009566;28;20221;-72
2022/09/21 08:37:23;;;;;;;13.50;7.30;;;;;;;13.82;90.96;101124.38;5015595;28;20214;-74
2022/09/21 08:39:49;;;;;;;8.47;7.10;;;;;;;13.78;91.63;101126.28;5009226;28;20179;-75
2022/09/21 08:42:43;;;;;;;11.03;7.70;;;;;;;14.13;88.01;101123.59;4989076;28;20226;-72
2022/09/21 08:45:16;;;;;;;9.30;7.20;;;;;;;13.51;90.71;101129.34;4963510;28;20223;-68
2022/09/21 08:47:44;;;;;;;12.33;7.10;;;;;;;13.97;91.54;101122.72;4954233;28;20219;-68
2022/09/21 08:50:21;;;;;;;9.67;6.80;;;;;;;14.90;81.40;101123.75;4945423;28;20247;-71
2022/09/21 08:52:51;;;;;;;9.97;6.67;;;;;;;16.34;72.89;101124.84;4956334;28;20283;-73
2022/09/21 08:55:19;;;;;;;10.17;5.80;;;;;;;17.52;63.73;101115.50;4970475;28;20211;-70
2022/09/21 08:57:45;;;;;;;8.53;6.30;;;;;;;17.57;61.61;101118.63;4971453;28;20307;-72
2022/09/21 09:00:16;;;;;;;10.60;6.40;;;;;;;17.70;60.17;101119.47;4944341;28;20294;-70
2022/09/21 09:02:50;;;;;;;8.43;6.23;;;;;;;18.11;57.86;101119.31;4959385;28;20196;-70
2022/09/21 09:05:35;;;;;;;7.07;5.67;;;;;;;20.10;50.09;101116.88;4969371;28;20711;-71
2022/09/21 09:08:26;;;;;;;8.17;5.83;;;;;;;21.13;45.23;101120.78;4967351;28;20248;-71
2022/09/21 09:11:13;;;;;;;10.53;5.53;;;;;;;23.47;39.45;101114.34;4941200;28;20240;-71
2022/09/21 09:14:03;;;;;;;12.93;5.20;;;;;;;23.57;38.87;101123.97;4966763;28;20339;-69
2022/09/21 09:16:39;;;;;;;7.00;5.20;;;;;;;21.39;42.18;101116.00;4969925;28;20222;-69
2022/09/21 09:19:32;;;;;;;8.65;4.13;;;;;;;21.91;40.66;101109.91;4970401;28;20199;-69
2022/09/21 09:22:01;;;;;;;5.93;3.60;;;;;;;22.09;41.58;101105.69;4980668;28;20233;-70
2022/09/21 09:24:40;;;;;;;7.35;4.57;;;;;;;20.49;43.48;101112.00;5018896;28;20203;-68
2022/09/21 09:27:20;;;;;;;6.30;2.53;;;;;;;21.92;40.54;101104.53;5017533;28;20178;-61
2022/09/21 09:30:03;;;;;;;8.30;2.93;;;;;;;21.46;41.36;101111.09;5010085;28;20289;-64
2022/09/21 09:32:58;;;;;;;4.87;2.77;;;;;;;21.86;41.47;101105.06;4982387;28;20733;-65
2022/09/21 09:35:28;;;;;;;6.50;3.10;;;;;;;21.86;40.14;101101.63;4974837;28;20229;-63
2022/09/21 09:38:02;;;;;;;3.73;2.87;;;;;;;23.16;38.82;101106.72;5014174;28;20297;-62
2022/09/21 09:40:53;;;;;;;7.50;2.40;;;;;;;23.43;37.34;101093.78;5005462;28;20232;-63
2022/09/21 09:43:46;;;;;;;5.90;2.72;;;;;;;25.18;35.80;101101.44;5018388;28;20237;-62
2022/09/21 09:46:44;;;;;;;4.03;2.30;;;;;;;26.08;32.51;101098.41;4950751;29;20238;-63
2022/09/21 09:49:22;;;;;;;5.13;2.72;;;;;;;26.53;31.19;101103.41;4951578;29;20280;-63
2022/09/21 09:51:50;;;;;;;6.18;2.28;;;;;;;24.52;33.11;101108.81;4941598;28;20291;-62
2022/09/21 09:54:20;;;;;;;3.28;2.35;;;;;;;;;;4935328;29;20220;-62
2022/09/21 09:56:46;;;;;;;5.13;2.20;;;;;;;23.68;35.51;101087.06;4948789;29;20201;-62
2022/09/21 09:59:25;;;;;;;4.35;1.83;;;;;;;23.62;34.75;101085.81;4950496;29;20205;-62
2022/09/21 10:02:16;;;;;;;4.03;2.00;;;;;;;19.74;41.53;101085.63;4936951;28;20625;-65
2022/09/21 10:04:54;;;;;;;4.63;2.55;;;;;;;21.92;38.93;101088.81;4949888;29;22074;-62
2022/09/21 10:07:32;;;;;;;3.88;2.20;;;;;;;23.63;35.57;101092.72;4951096;29;20223;-64
2022/09/21 10:09:58;;;;;;;4.47;2.05;;;;;;;23.19;35.74;101087.22;4947665;29;20207;-63
2022/09/21 10:12:26;;;;;;;7.28;1.85;;;;;;;24.53;34.15;101097.31;4925422;28;20620;-62
2022/09/21 10:14:54;;;;;;;3.42;1.60;;;;;;;22.96;35.31;101084.91;4949562;29;20228;-63
2022/09/21 10:17:23;;;;;;;4.50;1.50;;;;;;;22.27;37.08;101084.06;4949452;29;20293;-61
2022/09/21 10:20:01;;;;;;;3.20;1.80;;;;;;;21.31;38.54;101080.97;4947901;29;20275;-61
2022/09/21 10:22:27;;;;;;;4.82;1.75;;;;;;;19.73;40.96;101085.78;4948089;28;20681;-61
2022/09/21 10:25:00;;;;;;;3.47;1.87;;;;;;;18.14;45.61;101075.69;5010003;28;20274;-60
2022/09/21 10:27:34;;;;;;;3.13;1.67;;;;;;;17.25;51.27;101080.03;5011054;28;20211;-61
2022/09/21 10:30:00;;;;;;;4.50;1.83;;;;;;;16.74;53.93;101075.53;5011064;28;20272;-61
2022/09/21 10:32:29;;;;;;;4.27;1.93;;;;;;;15.91;56.76;101082.44;4999730;28;20577;-61
2022/09/21 10:35:04;;;;;;;4.27;1.67;;;;;;;15.84;58.14;101069.94;5009521;28;20194;-63
2022/09/21 10:37:36;;;;;;;3.63;1.90;;;;;;;15.65;60.89;101071.03;5009738;28;20182;-63
2022/09/21 10:40:24;;;;;;;4.77;1.80;;;;;;;15.47;62.43;101066.03;5006032;28;20623;-64
2022/09/21 10:42:54;;;;;;;2.93;2.10;;;;;;;15.29;63.71;101073.16;4998668;28;20230;-63
2022/09/21 10:45:20;;;;;;;6.27;2.40;;;;;;;15.10;67.18;101068.19;5010696;28;20198;-62
2022/09/21 10:48:07;;;;;;;6.07;2.47;;;;;;;15.13;67.69;101062.00;5001919;28;20289;-63
2022/09/21 10:50:43;;;;;;;12.20;2.47;;;;;;;14.99;65.84;101065.41;4998213;28;20222;-61
2022/09/21 10:53:11;;;;;;;6.13;2.17;;;;;;;15.20;67.01;101060.72;5011012;28;20186;-62
2022/09/21 10:55:44;;;;;;;3.57;1.23;;;;;;;15.19;61.97;101051.28;5009542;28;20202;-70
2022/09/21 10:58:11;;;;;;;2.07;1.40;;;;;;;15.19;62.64;101053.03;5007339;28;20191;-72
2022/09/21 11:00:50;;;;;;;4.80;1.40;;;;;;;15.03;62.92;101053.09;4990769;28;20600;-74
2022/09/21 11:03:38;;;;;;;5.17;1.60;;;;;;;14.80;64.49;101058.69;4995357;28;20183;-70
2022/09/21 11:06:17;;;;;;;4.03;1.30;;;;;;;14.61;63.35;101047.66;5005860;28;20634;-71
2022/09/21 11:09:21;;;;;;;2.70;1.40;;;;;;;14.78;64.93;101044.16;5006988;28;20344;-70
2022/09/21 11:12:34;;;;;;;2.13;1.27;;;;;;;14.87;63.60;101050.56;5000406;28;20229;-70
2022/09/21 11:15:13;;;;;;;2.37;1.23;;;;;;;14.72;62.39;101049.69;5007155;28;20246;-72
2022/09/21 11:17:54;;;;;;;2.40;1.30;;;;;;;14.67;62.20;101047.34;4996576;28;20229;-70
2022/09/21 11:20:38;;;;;;;4.90;1.73;;;;;;;14.58;62.08;101035.72;5002552;28;20199;-69
2022/09/21 11:23:17;;;;;;;3.43;1.47;;;;;;;14.76;62.53;101036.47;5008708;28;20197;-70
2022/09/21 11:25:49;;;;;;;2.80;1.33;;;;;;;14.93;64.54;101037.25;5007229;28;20273;-70
2022/09/21 11:28:27;;;;;;;2.37;1.50;;;;;;;15.14;62.40;101038.59;5009416;28;20191;-70
2022/09/21 11:31:13;;;;;;;6.40;1.43;;;;;;;15.09;64.13;101038.03;4981251;28;20691;-70
2022/09/21 11:34:05;;;;;;;3.57;1.20;;;;;;;15.09;62.88;101032.84;5002740;28;20186;-71
2022/09/21 11:36:48;;;;;;;5.33;1.80;;;;;;;15.24;60.99;101031.09;4976983;28;20193;-69
2022/09/21 11:39:20;;;;;;;3.27;1.37;;;;;;;15.30;60.25;101032.50;5010612;28;20210;-70
2022/09/21 11:42:30;;;;;;;4.07;1.03;;;;;;;15.14;59.31;101035.16;5000664;28;20233;-70
2022/09/21 11:45:00;;;;;;;6.47;1.40;;;;;;;15.23;59.54;101034.63;5014906;28;20226;-71
2022/09/21 11:47:55;;;;;;;3.50;1.30;;;;;;;15.26;59.60;101025.84;5010952;28;20191;-70
2022/09/21 11:50:35;;;;;;;4.07;1.60;;;;;;;15.47;57.65;101028.91;5020657;28;20194;-70